Time;durP1;ratioP1;P1;durP2;ratioP2;P2;SDS_P1;SDS_P2;PMS_P1;PMS_P2;Temp;Humidity;BMP_temperature;BMP_pressure;BME280_temperature;BME280_humidity;BME280_pressure;Samples;Min_cycle;Max_cycle;Signal;HPM_P1;HPM_P2
2023/06/11 00:00:42;;;;;;;13.30;10.50;;;;;;;;;;5028033;28;20048;-72
2023/06/11 00:03:07;;;;;;;12.23;9.93;;;;;;;;;;5028782;28;20076;-72
2023/06/11 00:05:33;;;;;;;19.13;10.50;;;;;;;;;;5033790;28;20498;-72
2023/06/11 00:08:00;;;;;;;11.98;9.80;;;;;;;;;;5039254;28;20037;-72
2023/06/11 00:10:26;;;;;;;13.52;10.05;;;;;;;;;;5029137;28;20029;-72
2023/06/11 00:12:51;;;;;;;15.10;10.30;;;;;;;;;;5025116;28;20038;-72
2023/06/11 00:15:16;;;;;;;12.93;10.15;;;;;;;;;;5026460;28;20095;-72
2023/06/11 00:17:42;;;;;;;13.43;10.30;;;;;;;;;;5025841;28;20120;-72
2023/06/11 00:20:11;;;;;;;15.02;10.90;;;;;;;;;;5026079;28;20039;-72
2023/06/11 00:22:38;;;;;;;16.13;10.82;;;;;;;;;;5025009;28;20033;-72
2023/06/11 00:25:06;;;;;;;16.05;10.35;;;;;;;;;;5025662;28;20036;-72
2023/06/11 00:27:32;;;;;;;12.20;10.13;;;;;;;;;;5026922;28;20028;-72
2023/06/11 00:29:57;;;;;;;13.65;10.43;;;;;;;;;;5027024;28;20403;-72
2023/06/11 00:32:23;;;;;;;18.40;10.25;;;;;;;;;;5027173;28;20655;-72
2023/06/11 00:34:48;;;;;;;16.10;10.77;;;;;;;;;;5026652;28;20101;-72
2023/06/11 00:37:13;;;;;;;13.63;10.15;;;;;;;;;;5026703;28;20061;-72
2023/06/11 00:39:39;;;;;;;13.93;10.38;;;;;;;;;;5026374;28;20033;-72
2023/06/11 00:42:05;;;;;;;13.50;10.27;;;;;;;;;;5026330;28;20094;-72
2023/06/11 00:44:30;;;;;;;12.52;10.15;;;;;;;;;;5019389;28;20053;-72
2023/06/11 00:46:57;;;;;;;13.15;9.88;;;;;;;;;;5026747;28;20025;-72
2023/06/11 00:49:23;;;;;;;11.88;9.88;;;;;;;;;;5026478;28;20018;-72
2023/06/11 00:51:48;;;;;;;15.55;10.77;;;;;;;;;;5026694;28;20033;-72
2023/06/11 00:54:16;;;;;;;18.00;10.90;;;;;;;;;;5026290;28;20025;-72
2023/06/11 00:56:51;;;;;;;14.75;10.30;;;;;;;;;;5026028;28;20027;-72
2023/06/11 00:59:20;;;;;;;15.75;10.60;;;;;;;;;;5026335;28;20043;-72
2023/06/11 01:02:01;;;;;;;14.25;9.73;;;;;;;;;;5025972;28;20032;-72
2023/06/11 01:04:29;;;;;;;13.48;9.95;;;;;;;;;;5025617;28;20081;-72
2023/06/11 01:06:59;;;;;;;13.98;10.40;;;;;;;;;;5026301;28;20029;-72
2023/06/11 01:09:25;;;;;;;13.30;11.18;;;;;;;;;;5026410;28;20706;-72
2023/06/11 01:11:53;;;;;;;13.93;10.35;;;;;;;;;;5017365;28;20033;-72
2023/06/11 01:14:19;;;;;;;14.25;10.00;;;;;;;;;;5019241;28;20029;-72
2023/06/11 01:17:05;;;;;;;15.73;10.77;;;;;;;;;;5025857;28;20039;-72
2023/06/11 01:19:33;;;;;;;13.13;10.30;;;;;;;;;;5014333;28;20033;-72
2023/06/11 01:22:05;;;;;;;12.48;10.32;;;;;;;;;;5015978;28;20523;-72
2023/06/11 01:24:43;;;;;;;13.80;10.35;;;;;;;;;;5014298;28;20111;-72
2023/06/11 01:27:33;;;;;;;11.73;9.52;;;;;;;;;;5024853;28;20487;-72
2023/06/11 01:30:01;;;;;;;16.45;10.68;;;;;;;;;;5026801;28;20025;-72
2023/06/11 01:32:27;;;;;;;19.65;10.27;;;;;;;;;;5028854;28;20057;-72
2023/06/11 01:35:02;;;;;;;15.20;10.20;;;;;;;;;;5038250;28;20621;-72
2023/06/11 01:37:29;;;;;;;12.20;9.90;;;;;;;;;;5033022;28;20030;-72
2023/06/11 01:39:57;;;;;;;15.05;10.18;;;;;;;;;;5024087;28;20033;-72
2023/06/11 01:42:23;;;;;;;13.48;10.43;;;;;;;;;;5009652;28;20491;-72
2023/06/11 01:44:48;;;;;;;15.00;10.18;;;;;;;;;;5017022;28;20028;-72
2023/06/11 01:47:13;;;;;;;14.50;10.45;;;;;;;;;;5020560;28;20059;-72
2023/06/11 01:49:39;;;;;;;13.65;10.07;;;;;;;;;;5025716;28;20380;-72
2023/06/11 01:52:05;;;;;;;16.70;10.70;;;;;;;;;;5025356;28;20505;-72
2023/06/11 01:54:31;;;;;;;14.10;10.18;;;;;;;;;;5024446;28;20052;-72
2023/06/11 01:56:56;;;;;;;15.23;11.15;;;;;;;;;;5023927;28;20663;-72
2023/06/11 01:59:21;;;;;;;13.95;10.52;;;;;;;;;;5025416;28;20715;-72
2023/06/11 02:01:52;;;;;;;14.20;10.50;;;;;;;;;;5025339;28;20526;-72
2023/06/11 02:04:21;;;;;;;15.85;10.90;;;;;;;;;;5024961;28;20049;-72
2023/06/11 02:06:46;;;;;;;15.13;10.73;;;;;;;;;;5024828;28;20033;-72
2023/06/11 02:09:12;;;;;;;14.02;10.27;;;;;;;;;;5025269;28;20033;-72
2023/06/11 02:11:37;;;;;;;14.48;9.98;;;;;;;;;;5025594;28;20025;-72
2023/06/11 02:14:03;;;;;;;13.88;10.38;;;;;;;;;;5024440;28;20033;-72
2023/06/11 02:16:28;;;;;;;13.45;10.25;;;;;;;;;;5024920;28;20494;-72
2023/06/11 02:18:53;;;;;;;16.52;10.00;;;;;;;;;;5025177;28;20033;-72
2023/06/11 02:21:18;;;;;;;13.52;10.40;;;;;;;;;;5016672;28;20033;-72
2023/06/11 02:23:44;;;;;;;14.32;10.48;;;;;;;;;;5018884;28;20029;-72
2023/06/11 02:26:09;;;;;;;14.02;10.45;;;;;;;;;;5025284;28;20025;-72
2023/06/11 02:28:35;;;;;;;16.48;10.50;;;;;;;;;;5024614;28;20025;-72
2023/06/11 02:31:00;;;;;;;15.00;10.40;;;;;;;;;;5020932;28;20038;-72
2023/06/11 02:33:25;;;;;;;15.25;10.55;;;;;;;;;;5021302;28;20037;-72
2023/06/11 02:35:50;;;;;;;13.40;10.43;;;;;;;;;;5024978;28;20056;-72
2023/06/11 02:38:16;;;;;;;16.63;10.15;;;;;;;;;;5024860;28;20047;-72
2023/06/11 02:40:41;;;;;;;16.52;10.27;;;;;;;;;;5023236;28;20526;-72
2023/06/11 02:43:06;;;;;;;13.65;10.13;;;;;;;;;;5024315;28;20029;-72
2023/06/11 02:45:32;;;;;;;12.48;10.13;;;;;;;;;;5028833;28;20029;-72
2023/06/11 02:47:57;;;;;;;16.13;9.75;;;;;;;;;;5028728;28;20029;-72
2023/06/11 02:50:23;;;;;;;12.95;9.93;;;;;;;;;;5029112;28;20032;-72
2023/06/11 02:52:48;;;;;;;14.05;9.63;;;;;;;;;;5028631;28;20033;-72
2023/06/11 02:55:13;;;;;;;12.60;9.80;;;;;;;;;;5016627;28;20025;-72
2023/06/11 02:57:38;;;;;;;16.30;10.25;;;;;;;;;;5029529;28;20029;-72
2023/06/11 03:00:05;;;;;;;13.57;10.23;;;;;;;;;;5033164;28;20035;-72
2023/06/11 03:02:31;;;;;;;19.35;9.90;;;;;;;;;;5020327;28;20036;-72
2023/06/11 03:04:56;;;;;;;13.23;10.00;;;;;;;;;;5033970;28;20120;-72
2023/06/11 03:07:21;;;;;;;14.68;10.88;;;;;;;;;;5028273;28;20033;-72
2023/06/11 03:09:46;;;;;;;13.88;10.30;;;;;;;;;;5027756;28;20075;-72
2023/06/11 03:12:12;;;;;;;13.23;9.73;;;;;;;;;;5017989;28;20032;-72
2023/06/11 03:14:38;;;;;;;13.52;9.13;;;;;;;;;;5027717;28;20098;-72
2023/06/11 03:17:04;;;;;;;14.02;10.13;;;;;;;;;;5027200;28;20040;-72
2023/06/11 03:19:29;;;;;;;14.82;9.23;;;;;;;;;;5028235;28;20034;-72
2023/06/11 03:21:55;;;;;;;12.40;9.20;;;;;;;;;;5028274;28;20035;-72
2023/06/11 03:24:20;;;;;;;14.43;9.48;;;;;;;;;;5028124;28;20079;-72
2023/06/11 03:26:45;;;;;;;11.07;8.90;;;;;;;;;;5028035;28;20029;-72
2023/06/11 03:29:11;;;;;;;15.68;9.45;;;;;;;;;;5027807;28;20059;-72
2023/06/11 03:31:38;;;;;;;16.58;9.35;;;;;;;;;;5028041;28;20510;-72
2023/06/11 03:34:03;;;;;;;13.90;9.27;;;;;;;;;;5027141;28;20040;-72
2023/06/11 03:36:29;;;;;;;18.98;9.93;;;;;;;;;;5027271;28;20033;-72
2023/06/11 03:38:54;;;;;;;13.27;10.02;;;;;;;;;;5027921;28;20107;-72
2023/06/11 03:41:19;;;;;;;15.13;9.52;;;;;;;;;;5027403;28;20031;-72
2023/06/11 03:43:45;;;;;;;12.93;9.35;;;;;;;;;;5025944;28;20569;-72
2023/06/11 03:46:10;;;;;;;13.23;9.68;;;;;;;;;;5027642;28;20541;-72
2023/06/11 03:48:35;;;;;;;13.15;9.10;;;;;;;;;;5027791;28;20669;-72
2023/06/11 03:51:01;;;;;;;13.02;9.05;;;;;;;;;;5028352;28;20546;-72
2023/06/11 03:53:26;;;;;;;16.13;9.63;;;;;;;;;;5023362;28;20138;-72
2023/06/11 03:55:52;;;;;;;12.98;9.00;;;;;;;;;;5027822;28;20537;-72
2023/06/11 03:58:17;;;;;;;12.30;9.32;;;;;;;;;;5026261;28;20025;-72
2023/06/11 04:00:42;;;;;;;16.10;9.60;;;;;;;;;;5027787;28;20025;-72
2023/06/11 04:03:07;;;;;;;14.85;9.25;;;;;;;;;;5026652;28;20079;-72
2023/06/11 04:05:36;;;;;;;12.75;9.15;;;;;;;;;;5026283;28;20103;-72
2023/06/11 04:08:02;;;;;;;12.20;9.38;;;;;;;;;;5025714;28;20074;-72
2023/06/11 04:10:27;;;;;;;12.52;8.85;;;;;;;;;;5027690;28;20017;-72
2023/06/11 04:12:52;;;;;;;16.50;9.77;;;;;;;;;;5027454;28;20414;-72
2023/06/11 04:15:18;;;;;;;13.68;9.35;;;;;;;;;;5026388;28;20524;-72
2023/06/11 04:17:43;;;;;;;13.60;9.65;;;;;;;;;;5027658;28;20022;-72
2023/06/11 04:20:09;;;;;;;13.60;9.23;;;;;;;;;;5026995;28;20017;-73
2023/06/11 04:22:34;;;;;;;13.73;9.30;;;;;;;;;;5023346;28;20108;-72
2023/06/11 04:25:00;;;;;;;14.15;9.38;;;;;;;;;;5026449;28;20026;-72
2023/06/11 04:27:25;;;;;;;14.07;9.93;;;;;;;;;;5028598;28;20117;-72
2023/06/11 04:29:52;;;;;;;15.93;10.23;;;;;;;;;;5036927;28;20025;-72
2023/06/11 04:32:20;;;;;;;14.13;9.98;;;;;;;;;;5039370;28;20026;-72
2023/06/11 04:34:48;;;;;;;14.55;9.43;;;;;;;;;;5028079;28;20564;-72
2023/06/11 04:37:16;;;;;;;12.50;9.30;;;;;;;;;;5027541;28;20021;-72
2023/06/11 04:39:41;;;;;;;11.50;9.25;;;;;;;;;;5019116;28;20029;-72
2023/06/11 04:42:07;;;;;;;15.18;9.98;;;;;;;;;;5025350;28;20754;-72
2023/06/11 04:44:33;;;;;;;13.27;9.48;;;;;;;;;;5025758;28;20539;-72
2023/06/11 04:46:58;;;;;;;14.05;9.27;;;;;;;;;;5026571;28;20483;-72
2023/06/11 04:49:24;;;;;;;13.15;9.70;;;;;;;;;;5026475;28;20080;-72
2023/06/11 04:51:52;;;;;;;11.55;8.73;;;;;;;;;;5026142;28;20049;-72
2023/06/11 04:54:21;;;;;;;16.10;9.30;;;;;;;;;;5026670;28;20100;-72
2023/06/11 04:56:47;;;;;;;13.55;9.43;;;;;;;;;;5025067;28;20025;-72
2023/06/11 04:59:13;;;;;;;12.52;9.35;;;;;;;;;;5023393;28;20499;-72
2023/06/11 05:01:46;;;;;;;12.05;9.43;;;;;;;;;;5021640;28;20067;-71
2023/06/11 05:04:13;;;;;;;12.68;9.18;;;;;;;;;;5021920;28;20644;-72
2023/06/11 05:06:44;;;;;;;15.07;9.10;;;;;;;;;;5022584;28;20025;-72
2023/06/11 05:09:12;;;;;;;14.40;9.75;;;;;;;;;;5024950;28;20021;-72
2023/06/11 05:11:39;;;;;;;14.57;9.05;;;;;;;;;;5022239;28;20550;-72
2023/06/11 05:14:04;;;;;;;12.65;9.07;;;;;;;;;;5022913;28;20068;-72
2023/06/11 05:16:30;;;;;;;12.75;9.30;;;;;;;;;;5025864;28;20029;-72
2023/06/11 05:18:55;;;;;;;12.80;9.13;;;;;;;;;;5023176;28;20203;-72
2023/06/11 05:21:20;;;;;;;14.07;9.40;;;;;;;;;;5019334;28;20036;-72
2023/06/11 05:23:46;;;;;;;13.60;9.63;;;;;;;;;;5024124;28;20022;-72
2023/06/11 05:26:15;;;;;;;12.95;8.68;;;;;;;;;;5026464;28;20025;-72
2023/06/11 05:28:40;;;;;;;12.65;9.48;;;;;;;;;;5025193;28;20026;-72
2023/06/11 05:31:11;;;;;;;13.40;9.02;;;;;;;;;;5015764;28;20099;-72
2023/06/11 05:33:36;;;;;;;11.93;9.07;;;;;;;;;;5021005;28;20495;-72
2023/06/11 05:36:02;;;;;;;14.15;9.80;;;;;;;;;;5016705;28;20025;-72
2023/06/11 05:38:28;;;;;;;14.32;9.40;;;;;;;;;;5023399;28;20030;-72
2023/06/11 05:40:54;;;;;;;13.68;8.70;;;;;;;;;;5019353;28;20025;-71
2023/06/11 05:43:20;;;;;;;11.98;8.82;;;;;;;;;;5017804;28;20022;-72
2023/06/11 05:45:49;;;;;;;12.98;8.60;;;;;;;;;;5018691;28;20029;-72
2023/06/11 05:48:16;;;;;;;11.57;8.88;;;;;;;;;;5015234;28;20396;-72
2023/06/11 05:50:42;;;;;;;12.50;8.77;;;;;;;;;;5020481;28;20029;-72
2023/06/11 05:53:09;;;;;;;12.07;9.00;;;;;;;;;;5018827;28;20060;-72
2023/06/11 05:55:35;;;;;;;13.15;8.85;;;;;;;;;;5029307;28;20093;-71
2023/06/11 05:58:00;;;;;;;13.93;8.77;;;;;;;;;;5037955;28;20063;-72
2023/06/11 06:00:26;;;;;;;13.35;8.73;;;;;;;;;;5024698;28;20033;-72
2023/06/11 06:02:51;;;;;;;13.82;9.00;;;;;;;;;;5023078;28;20049;-72
2023/06/11 06:05:17;;;;;;;14.90;9.38;;;;;;;;;;5024730;28;20400;-71
2023/06/11 06:07:42;;;;;;;11.02;8.25;;;;;;;;;;5013650;28;20026;-71
2023/06/11 06:10:07;;;;;;;12.10;8.82;;;;;;;;;;5012773;28;20045;-71
2023/06/11 06:12:33;;;;;;;11.90;8.15;;;;;;;;;;5010422;28;20038;-72
2023/06/11 06:14:58;;;;;;;13.40;8.02;;;;;;;;;;5015610;28;20129;-71
2023/06/11 06:17:23;;;;;;;10.30;8.43;;;;;;;;;;5015444;28;20021;-72
2023/06/11 06:19:49;;;;;;;10.98;8.57;;;;;;;;;;5025391;28;20060;-72
2023/06/11 06:22:18;;;;;;;16.70;8.05;;;;;;;;;;5027064;28;20037;-72
2023/06/11 06:24:43;;;;;;;12.80;8.73;;;;;;;;;;5015672;28;20025;-73
2023/06/11 06:27:09;;;;;;;10.40;7.85;;;;;;;;;;5027104;28;20112;-72
2023/06/11 06:29:38;;;;;;;12.82;8.57;;;;;;;;;;5021335;28;20053;-72
2023/06/11 06:32:07;;;;;;;11.60;8.05;;;;;;;;;;5014613;28;20128;-72
2023/06/11 06:34:34;;;;;;;11.60;8.23;;;;;;;;;;5019600;28;20033;-72
2023/06/11 06:37:00;;;;;;;13.05;8.25;;;;;;;;;;5019910;28;20041;-72
2023/06/11 06:39:26;;;;;;;11.27;8.70;;;;;;;;;;5015510;28;20105;-72
2023/06/11 06:41:51;;;;;;;14.40;8.35;;;;;;;;;;5022915;28;20033;-72
2023/06/11 06:44:16;;;;;;;14.63;8.90;;;;;;;;;;5028205;28;20032;-72
2023/06/11 06:46:42;;;;;;;10.48;8.15;;;;;;;;;;5021627;28;20036;-72
2023/06/11 06:49:07;;;;;;;12.27;9.05;;;;;;;;;;5021462;28;20483;-72
2023/06/11 06:51:32;;;;;;;10.10;7.68;;;;;;;;;;5014600;28;20518;-72
2023/06/11 06:53:58;;;;;;;8.93;7.63;;;;;;;;;;5020874;28;20041;-72
2023/06/11 06:56:24;;;;;;;10.50;8.18;;;;;;;;;;5020831;28;20035;-72
2023/06/11 06:58:50;;;;;;;10.60;8.18;;;;;;;;;;5019314;28;20033;-72
2023/06/11 07:01:15;;;;;;;10.70;7.90;;;;;;;;;;5020158;28;20033;-72
2023/06/11 07:03:41;;;;;;;10.55;8.43;;;;;;;;;;5020436;28;20045;-72
2023/06/11 07:06:07;;;;;;;9.98;8.10;;;;;;;;;;5022738;28;20037;-72
2023/06/11 07:08:32;;;;;;;11.95;8.15;;;;;;;;;;5028316;28;20033;-72
2023/06/11 07:10:58;;;;;;;11.32;8.32;;;;;;;;;;5025169;28;20032;-72
2023/06/11 07:13:23;;;;;;;10.13;8.18;;;;;;;;;;5027112;28;20103;-72
2023/06/11 07:15:50;;;;;;;10.98;8.07;;;;;;;;;;5028037;28;20037;-72
2023/06/11 07:18:16;;;;;;;10.30;7.97;;;;;;;;;;5029031;28;20116;-72
2023/06/11 07:20:42;;;;;;;9.88;7.43;;;;;;;;;;5033976;28;20128;-72
2023/06/11 07:23:07;;;;;;;9.27;7.60;;;;;;;;;;5035990;28;20386;-72
2023/06/11 07:25:33;;;;;;;9.48;8.00;;;;;;;;;;5032883;28;20069;-72
2023/06/11 07:28:02;;;;;;;9.77;7.15;;;;;;;;;;5029436;28;20075;-72
2023/06/11 07:30:32;;;;;;;9.50;7.50;;;;;;;;;;5027260;28;20025;-72
2023/06/11 07:32:58;;;;;;;9.23;6.93;;;;;;;;;;5028169;28;20032;-71
2023/06/11 07:35:25;;;;;;;9.00;7.20;;;;;;;;;;5024430;28;20120;-72
2023/06/11 07:37:51;;;;;;;7.53;6.55;;;;;;;;;;5027709;28;20120;-72
2023/06/11 07:40:16;;;;;;;17.67;7.22;;;;;;;;;;5026019;28;20128;-72
2023/06/11 07:42:43;;;;;;;7.97;6.97;;;;;;;;;;5026316;28;20111;-72
2023/06/11 07:45:09;;;;;;;10.25;7.57;;;;;;;;;;5027366;28;20037;-71
2023/06/11 07:47:35;;;;;;;9.43;7.60;;;;;;;;;;5014298;28;20030;-71
2023/06/11 07:50:01;;;;;;;8.95;6.97;;;;;;;;;;5022486;28;20104;-71
2023/06/11 07:52:27;;;;;;;11.85;7.10;;;;;;;;;;5026139;28;20116;-72
2023/06/11 07:54:52;;;;;;;8.95;7.15;;;;;;;;;;5027180;28;20033;-72
2023/06/11 07:57:17;;;;;;;8.98;7.00;;;;;;;;;;5026263;28;20025;-72
2023/06/11 07:59:43;;;;;;;8.38;6.82;;;;;;;;;;5025337;28;20443;-72
2023/06/11 08:02:10;;;;;;;9.48;7.30;;;;;;;;;;5027133;28;20562;-72
2023/06/11 08:04:35;;;;;;;7.57;6.60;;;;;;;;;;5024410;28;20041;-72
2023/06/11 08:07:01;;;;;;;8.75;7.38;;;;;;;;;;5019419;28;20103;-72
2023/06/11 08:09:26;;;;;;;8.75;6.45;;;;;;;;;;5023202;28;20029;-72
2023/06/11 08:11:52;;;;;;;11.65;7.35;;;;;;;;;;5027156;28;20029;-72
2023/06/11 08:14:19;;;;;;;8.23;6.90;;;;;;;;;;5026155;28;20399;-71
2023/06/11 08:16:45;;;;;;;8.68;7.25;;;;;;;;;;5021138;28;20033;-72
2023/06/11 08:19:11;;;;;;;9.70;7.35;;;;;;;;;;5012329;28;20040;-72
2023/06/11 08:21:37;;;;;;;9.15;7.28;;;;;;;;;;5019536;28;20025;-72
2023/06/11 08:24:03;;;;;;;9.98;7.60;;;;;;;;;;5015945;28;20210;-71
2023/06/11 08:26:28;;;;;;;10.52;7.03;;;;;;;;;;5021151;28;20037;-72
2023/06/11 08:28:53;;;;;;;9.05;7.55;;;;;;;;;;5024515;28;20442;-72
2023/06/11 08:31:19;;;;;;;8.63;7.35;;;;;;;;;;5023741;28;20047;-72
2023/06/11 08:33:44;;;;;;;11.43;7.13;;;;;;;;;;5027546;28;20033;-72
2023/06/11 08:36:09;;;;;;;10.25;7.88;;;;;;;;;;5025238;28;20036;-72
2023/06/11 08:38:35;;;;;;;9.23;7.80;;;;;;;;;;5025311;28;20064;-72
2023/06/11 08:41:00;;;;;;;8.35;7.32;;;;;;;;;;5015643;28;20033;-72
2023/06/11 08:43:26;;;;;;;8.07;7.07;;;;;;;;;;5028996;28;20032;-72
2023/06/11 08:45:51;;;;;;;8.90;7.35;;;;;;;;;;5025809;28;20022;-73
2023/06/11 08:48:21;;;;;;;9.40;7.50;;;;;;;;;;5032914;28;20024;-72
2023/06/11 08:50:50;;;;;;;10.18;7.40;;;;;;;;;;5037646;28;20036;-72
2023/06/11 08:53:15;;;;;;;9.88;7.68;;;;;;;;;;5026092;28;20133;-72
2023/06/11 08:55:41;;;;;;;9.52;7.60;;;;;;;;;;5024405;28;20041;-72
2023/06/11 08:58:09;;;;;;;8.57;7.07;;;;;;;;;;5026465;28;20518;-72
2023/06/11 09:00:36;;;;;;;10.05;7.70;;;;;;;;;;5025501;28;20048;-71
2023/06/11 09:03:03;;;;;;;9.85;7.32;;;;;;;;;;5024092;28;20060;-72
2023/06/11 09:05:30;;;;;;;8.45;7.43;;;;;;;;;;5018512;28;20029;-72
2023/06/11 09:07:55;;;;;;;9.70;7.85;;;;;;;;;;5020612;28;20040;-73
2023/06/11 09:10:21;;;;;;;9.77;7.72;;;;;;;;;;5021654;28;20041;-73
2023/06/11 09:12:46;;;;;;;9.95;8.02;;;;;;;;;;5016718;28;20494;-71
2023/06/11 09:15:12;;;;;;;9.48;7.30;;;;;;;;;;5024141;28;20048;-72
2023/06/11 09:17:43;;;;;;;8.57;7.40;;;;;;;;;;5019394;28;20029;-71
2023/06/11 09:20:14;;;;;;;10.98;7.75;;;;;;;;;;5025852;28;20029;-72
2023/06/11 09:22:44;;;;;;;10.75;7.55;;;;;;;;;;5022141;28;20029;-71
2023/06/11 09:25:16;;;;;;;9.30;7.72;;;;;;;;;;5016074;28;20061;-71
2023/06/11 09:27:41;;;;;;;10.50;7.82;;;;;;;;;;5025677;28;20025;-70
2023/06/11 09:30:17;;;;;;;15.35;8.80;;;;;;;;;;5023062;28;20549;-72
2023/06/11 09:32:45;;;;;;;11.68;8.13;;;;;;;;;;5036648;28;20034;-72
2023/06/11 09:35:11;;;;;;;10.38;8.13;;;;;;;;;;5025675;28;20025;-72
2023/06/11 09:37:45;;;;;;;9.63;8.30;;;;;;;;;;5023182;28;20533;-71
2023/06/11 09:40:15;;;;;;;10.25;8.35;;;;;;;;;;5024326;28;20022;-71
2023/06/11 09:42:43;;;;;;;10.25;8.00;;;;;;;;;;5021539;28;20041;-72
2023/06/11 09:45:16;;;;;;;10.82;8.75;;;;;;;;;;5020291;28;20036;-73
2023/06/11 09:47:45;;;;;;;;;;;;;;;;;;5026646;28;20017;-73
2023/06/11 09:50:12;;;;;;;9.65;8.25;;;;;;;;;;5017170;28;19928;-72
2023/06/11 09:52:39;;;;;;;10.20;8.10;;;;;;;;;;5010195;28;20059;-72
2023/06/11 09:55:08;;;;;;;10.00;7.97;;;;;;;;;;5025431;28;20036;-72
2023/06/11 09:57:33;;;;;;;9.73;7.90;;;;;;;;;;5024882;28;20021;-72
2023/06/11 10:00:00;;;;;;;8.90;7.80;;;;;;;;;;5014847;28;20084;-72
2023/06/11 10:02:26;;;;;;;11.68;8.95;;;;;;;;;;5010936;28;20088;-72
2023/06/11 10:04:52;;;;;;;9.65;7.80;;;;;;;;;;5024419;28;20454;-72
2023/06/11 10:07:20;;;;;;;9.95;7.93;;;;;;;;;;5025107;28;20071;-72
2023/06/11 10:09:50;;;;;;;10.80;7.90;;;;;;;;;;5025158;28;20030;-72
2023/06/11 10:12:15;;;;;;;12.35;7.88;;;;;;;;;;5024337;28;20112;-72
2023/06/11 10:14:41;;;;;;;9.32;7.95;;;;;;;;;;5024742;28;20125;-72
2023/06/11 10:17:08;;;;;;;9.02;7.63;;;;;;;;;;5036995;28;20029;-72
2023/06/11 10:19:34;;;;;;;11.23;8.82;;;;;;;;;;5031819;28;20041;-72
2023/06/11 10:22:01;;;;;;;10.02;7.55;;;;;;;;;;5025179;28;20060;-72
2023/06/11 10:24:28;;;;;;;10.52;7.45;;;;;;;;;;5025806;28;20407;-73
2023/06/11 10:27:14;;;;;;;8.13;7.30;;;;;;;;;;5022959;28;20033;-72
2023/06/11 10:29:41;;;;;;;10.02;8.13;;;;;;;;;;5020685;28;20025;-72
2023/06/11 10:32:21;;;;;;;9.65;8.25;;;;;;;;;;5024356;28;20601;-72
2023/06/11 10:34:54;;;;;;;10.40;7.95;;;;;;;;;;5023193;28;20041;-72
2023/06/11 10:37:47;;;;;;;9.32;7.40;;;;;;;;;;5022025;28;20025;-72
2023/06/11 10:40:12;;;;;;;9.07;7.53;;;;;;;;;;5023416;28;20029;-72
2023/06/11 10:42:40;;;;;;;8.18;6.97;;;;;;;;;;5023291;28;20036;-72
2023/06/11 10:45:13;;;;;;;8.93;7.43;;;;;;;;;;5024220;28;20029;-72
2023/06/11 10:47:44;;;;;;;8.32;7.25;;;;;;;;;;5023358;28;20025;-72
2023/06/11 10:50:12;;;;;;;10.38;7.60;;;;;;;;;;5024592;28;20025;-72
2023/06/11 10:52:53;;;;;;;7.75;6.70;;;;;;;;;;5010325;28;20479;-72
2023/06/11 10:55:21;;;;;;;8.68;7.20;;;;;;;;;;5023013;28;20022;-72
2023/06/11 10:57:50;;;;;;;9.13;6.93;;;;;;;;;;5021239;28;20037;-72
2023/06/11 11:00:16;;;;;;;9.57;6.78;;;;;;;;;;5024342;28;20246;-72
2023/06/11 11:02:42;;;;;;;8.27;7.10;;;;;;;;;;5024110;28;20400;-72
2023/06/11 11:05:09;;;;;;;8.95;7.50;;;;;;;;;;5026542;28;20028;-72
2023/06/11 11:07:36;;;;;;;9.73;6.93;;;;;;;;;;5026428;28;20033;-72
2023/06/11 11:10:05;;;;;;;8.90;7.90;;;;;;;;;;5026248;28;20025;-72
2023/06/11 11:12:41;;;;;;;10.25;7.35;;;;;;;;;;5023278;28;20025;-72
2023/06/11 11:15:07;;;;;;;8.82;7.25;;;;;;;;;;5023571;28;20029;-72
2023/06/11 11:17:33;;;;;;;8.52;7.20;;;;;;;;;;5027797;28;20021;-72
2023/06/11 11:20:00;;;;;;;11.57;7.68;;;;;;;;;;5027024;28;20585;-72
2023/06/11 11:22:26;;;;;;;11.27;7.82;;;;;;;;;;5027869;28;20083;-72
2023/06/11 11:24:52;;;;;;;9.82;7.53;;;;;;;;;;5027937;28;20021;-72
2023/06/11 11:27:22;;;;;;;9.15;7.85;;;;;;;;;;5026856;28;20113;-71
2023/06/11 11:29:47;;;;;;;8.98;6.93;;;;;;;;;;5028073;28;20025;-71
2023/06/11 11:32:13;;;;;;;8.90;8.00;;;;;;;;;;5026605;28;20749;-72
2023/06/11 11:34:39;;;;;;;9.23;7.50;;;;;;;;;;5027814;28;20052;-72
2023/06/11 11:37:06;;;;;;;12.32;10.65;;;;;;;;;;5027701;28;20040;-72
2023/06/11 11:39:31;;;;;;;10.88;8.35;;;;;;;;;;5028298;28;20033;-72
2023/06/11 11:41:57;;;;;;;14.07;9.27;;;;;;;;;;5024565;28;20038;-73
2023/06/11 11:44:24;;;;;;;9.68;7.65;;;;;;;;;;5026410;28;20025;-73
2023/06/11 11:46:54;;;;;;;8.98;7.40;;;;;;;;;;5034876;28;20033;-71
2023/06/11 11:49:20;;;;;;;24.23;15.45;;;;;;;;;;5026336;28;20052;-72
2023/06/11 11:51:51;;;;;;;9.68;7.38;;;;;;;;;;5026094;28;20138;-71
2023/06/11 11:54:17;;;;;;;8.02;7.20;;;;;;;;;;5014575;28;20048;-72
2023/06/11 11:56:43;;;;;;;9.20;7.20;;;;;;;;;;5024043;28;20111;-72
2023/06/11 11:59:19;;;;;;;8.93;7.68;;;;;;;;;;5019139;28;20116;-72
2023/06/11 12:01:59;;;;;;;10.73;7.30;;;;;;;;;;5022578;28;20040;-72
2023/06/11 12:04:38;;;;;;;9.82;7.55;;;;;;;;;;5024034;28;20049;-72
2023/06/11 12:07:06;;;;;;;8.15;7.13;;;;;;;;;;5015304;28;20537;-72
2023/06/11 12:09:31;;;;;;;11.25;7.28;;;;;;;;;;5026289;28;20035;-72
2023/06/11 12:11:56;;;;;;;7.43;6.72;;;;;;;;;;5026640;28;20037;-72
2023/06/11 12:14:22;;;;;;;9.98;7.30;;;;;;;;;;5019679;28;20034;-73
2023/06/11 12:16:48;;;;;;;8.57;7.07;;;;;;;;;;5016481;28;20057;-73
2023/06/11 12:19:15;;;;;;;9.07;6.93;;;;;;;;;;5018378;28;20561;-73
2023/06/11 12:21:41;;;;;;;7.82;7.03;;;;;;;;;;5014052;28;20180;-72
2023/06/11 12:24:09;;;;;;;9.43;8.07;;;;;;;;;;5018655;28;20140;-72
2023/06/11 12:26:35;;;;;;;9.45;7.32;;;;;;;;;;5020268;28;20135;-72
2023/06/11 12:29:00;;;;;;;10.23;7.35;;;;;;;;;;5024547;28;20656;-72
2023/06/11 12:31:26;;;;;;;7.45;6.75;;;;;;;;;;5026422;28;20041;-71
2023/06/11 12:33:51;;;;;;;7.47;6.65;;;;;;;;;;5026483;28;20029;-72
2023/06/11 12:36:17;;;;;;;13.63;10.63;;;;;;;;;;5025889;28;20049;-74
2023/06/11 12:38:42;;;;;;;7.97;7.18;;;;;;;;;;5026336;28;20024;-70
2023/06/11 12:41:08;;;;;;;7.05;6.35;;;;;;;;;;5021391;28;20044;-75
2023/06/11 12:43:33;;;;;;;7.50;6.68;;;;;;;;;;5020654;28;20035;-71
2023/06/11 12:45:59;;;;;;;8.15;6.97;;;;;;;;;;5024650;28;20449;-70
2023/06/11 12:48:24;;;;;;;7.03;6.32;;;;;;;;;;5025076;28;20582;-69
2023/06/11 12:50:49;;;;;;;7.38;6.63;;;;;;;;;;5025616;28;20028;-70
2023/06/11 12:53:15;;;;;;;8.07;6.22;;;;;;;;;;5025957;28;20025;-70
2023/06/11 12:55:40;;;;;;;8.18;6.68;;;;;;;;;;5026266;28;20025;-71
2023/06/11 12:58:06;;;;;;;8.82;6.45;;;;;;;;;;5026331;28;20033;-71
2023/06/11 13:00:32;;;;;;;7.32;6.63;;;;;;;;;;5023945;28;20450;-70
2023/06/11 13:02:57;;;;;;;8.43;6.55;;;;;;;;;;5026560;28;20079;-71
2023/06/11 13:05:23;;;;;;;6.70;6.00;;;;;;;;;;5026321;28;20032;-71
2023/06/11 13:07:48;;;;;;;7.10;6.40;;;;;;;;;;5026929;28;20029;-72
2023/06/11 13:10:14;;;;;;;6.57;5.95;;;;;;;;;;5029808;28;20357;-71
2023/06/11 13:12:40;;;;;;;7.47;6.78;;;;;;;;;;5036994;28;20041;-71
2023/06/11 13:15:05;;;;;;;8.85;7.70;;;;;;;;;;5034843;28;20037;-70
2023/06/11 13:17:31;;;;;;;12.20;6.30;;;;;;;;;;5021731;28;20022;-69
2023/06/11 13:19:57;;;;;;;12.77;7.28;;;;;;;;;;5025424;28;20087;-72
2023/06/11 13:22:22;;;;;;;9.68;7.90;;;;;;;;;;5019929;28;20025;-72
2023/06/11 13:24:48;;;;;;;8.55;6.75;;;;;;;;;;5021401;28;20032;-72
2023/06/11 13:27:13;;;;;;;6.95;6.22;;;;;;;;;;5024617;28;20032;-72
2023/06/11 13:29:39;;;;;;;9.82;7.00;;;;;;;;;;5025882;28;20022;-72
2023/06/11 13:32:05;;;;;;;7.32;6.38;;;;;;;;;;5024777;28;20022;-72
2023/06/11 13:34:30;;;;;;;7.63;6.82;;;;;;;;;;5024549;28;20044;-72
2023/06/11 13:36:56;;;;;;;7.88;6.70;;;;;;;;;;5023710;28;20025;-72
2023/06/11 13:39:23;;;;;;;7.38;6.68;;;;;;;;;;5023074;28;20162;-72
2023/06/11 13:41:48;;;;;;;7.07;6.40;;;;;;;;;;5027589;28;20017;-72
2023/06/11 13:44:14;;;;;;;7.55;6.15;;;;;;;;;;5025116;28;20017;-72
2023/06/11 13:46:39;;;;;;;7.28;6.47;;;;;;;;;;5024226;28;20454;-72
2023/06/11 13:49:05;;;;;;;12.05;6.55;;;;;;;;;;5013827;28;20082;-71
2023/06/11 13:51:32;;;;;;;7.20;6.50;;;;;;;;;;5025817;28;20033;-71
2023/06/11 13:53:58;;;;;;;6.78;6.00;;;;;;;;;;5024522;28;20052;-71
2023/06/11 13:56:23;;;;;;;7.18;6.28;;;;;;;;;;5024990;28;20022;-71
2023/06/11 13:58:50;;;;;;;7.20;6.50;;;;;;;;;;5020538;28;20056;-70
2023/06/11 14:01:15;;;;;;;7.00;6.30;;;;;;;;;;5020235;28;20695;-70
2023/06/11 14:03:40;;;;;;;8.20;7.40;;;;;;;;;;5022171;28;20060;-70
2023/06/11 14:06:07;;;;;;;7.15;6.10;;;;;;;;;;5023206;28;20487;-70
2023/06/11 14:08:34;;;;;;;7.78;5.97;;;;;;;;;;5022897;28;20107;-70
2023/06/11 14:10:59;;;;;;;7.10;6.20;;;;;;;;;;5022063;28;20017;-70
2023/06/11 14:13:25;;;;;;;7.15;6.22;;;;;;;;;;5023041;28;20029;-70
2023/06/11 14:15:50;;;;;;;7.22;6.13;;;;;;;;;;5021483;28;20440;-70
2023/06/11 14:18:16;;;;;;;8.27;6.80;;;;;;;;;;5010746;28;20041;-70
2023/06/11 14:20:42;;;;;;;7.70;5.95;;;;;;;;;;5017460;28;20030;-70
2023/06/11 14:23:07;;;;;;;7.32;6.63;;;;;;;;;;5019638;28;20037;-70
2023/06/11 14:25:32;;;;;;;7.68;6.38;;;;;;;;;;5015781;28;20029;-70
2023/06/11 14:27:58;;;;;;;9.13;6.57;;;;;;;;;;5009487;28;20499;-70
2023/06/11 14:30:23;;;;;;;8.07;6.43;;;;;;;;;;5018955;28;20499;-70